Eustis, ME (04936)

3:18 AM EST on November 18, 2019 (GMT -0500)
Adams St | | Change Station
Active Advisory: Winter Weather Advisory

Elev 1276 ft 45.12 °N, 70.39 °W | Updated 17 seconds ago

Clear
Clear
4.6 °F
Feels Like 5 °F
N
0
Wind Variable Wind from NNW
Gusts 0.0 mph

Today
High -- | Low -- °F
--% Chance of Precip.
Yesterday
High -- | Low -- °F
Precip. -- in
Pressure 30.18 in
Visibility 10.0 miles
Clouds Few 2300 ft
Windchill 5 °F
Dew Point 2 °F
Humidity 89%
Rainfall 0.00 in
Snow Depth Not available.
6:43 AM 4:09 PM
Waning Gibbous, 67% visible
METAR KBML 180752Z AUTO 00000KT 10SM FEW023 M16/M18 A3011 RMK AO2 SLP219 T11561183
Pressure 30.18 in
Visibility 10.0 miles
Clouds Few 2300 ft
Windchill 5 °F
Dew Point 2 °F
Humidity 89%
Rainfall 0.00 in
Snow Depth Not available.
6:43 AM 4:09 PM
Waning Gibbous, 67% visible
METAR KBML 180752Z AUTO 00000KT 10SM FEW023 M16/M18 A3011 RMK AO2 SLP219 T11561183

Get Your Daily Forecast Email!

Thanks for signing up!

Be on the lookout for a verification email in your inbox.

You'll start receiving severe weather alerts in your inbox..

×

10-Day Weather Forecast

Almanac

Astronomy

Nov. 18, 2019 Rise Set
Actual Time
Civil Twilight
Nautical Twilight
Astronomical Twilight
Moon
Length of Visible Light
Length of Day
Tomorrow will be .
, % of the Moon is Illuminated

Today's Extremes

State Highs State Lows

Community

WunderPhotos

Category 6

Welcome to Category 6. This is the collective home for Weather Underground's featured writeups by Dr. Jeff Masters (right), Bob Henson (left), Chris Burt, and other regular contributors.

Nearby

Air Quality

  Air Quality AQ Index Pollutant
Not available.

Snow Depth

Station Depth Elevation

Earthquake Activity

City Distance Mag. Time & Date
Minimum magnitude displayed is 2.5.

Coastal Water Temperatures

Place Temperature

Stations

Nearby Weather Stations

Station Location Temp. Windchill Dew Point Humidity Wind Precip. Elev Updated Type
                   

Watches & Warnings

Winter Weather Advisory
Issued: 3:03 AM EST Nov. 18, 2019 – National Weather Service

... Winter Weather Advisory now in effect from 10 am this morning
to 11 am EST Tuesday...

* what... mixed precipitation expected. Total snow accumulations of
1 to 4 inches and ice accumulations of around one tenth of an
inch expected.

* Where... portions of central and northern New Hampshire and
south central, west central and western Maine.

* When... from 10 am this morning to 11 am EST Tuesday.

Precautionary/preparedness actions...

A Winter Weather Advisory means that periods of snow, sleet or
freezing rain will cause travel difficulties. Expect slippery
roads and limited visibilities, and use caution while driving.

For a more precise forecast for your specific location... go to
www.Weather.Gov/gray.